< < Back
Terminal Aerodrome Forecast


Current Version              Previous Versions:   1  2  3  4  5  6  7  8  9  

Terminal Aerodrome Forecast

221
FTUS42 KGSP 311121
TAFAVL
TAF
KAVL 311121Z 3112/0112 17004KT P6SM SKC
     FM311600 21006KT P6SM FEW250
     FM311800 25008KT P6SM SCT250
     FM312300 32009KT P6SM SCT050
     FM010600 34008KT P6SM SCT029
     FM011100 33005KT P6SM FEW180=

Latest METAR

284
SAUS70 KWBC 312300 RRD
MTRAVL
METAR KAVL 312254Z 30009KT 10SM BKN090 21/03 A2987 RMK AO2 SLP105
T02060028


USA.gov is the U.S. government's official web portal to all federal, state and local government web resources and services.